»·PEaware :: N4657 KPDX-KOTH

N4657 :: KPDX-KOTH

FLIGHT INFORMATION

Flight Status: Arrived
Operator: Privately registered:
United States
More flights under this callsign
Pilot: Mike M. (17070)
Aircraft: PILATUS PC-12 EAGLE
(PC12)
More flights by this aircraft type
Origin: KPDX Portland Intl
United States
Destination: KOTH North Bend Mun
United States
More flights between these airports :: More routes between these airports
Route: +PTLD1 UBG V287 OTH
File this flight plan on PilotEdge
Remarks:
Altitude:
(Current/Filed)
20,000ft
Speed:
(Current/Filed)
250kts
Departed: 22-Jun-18 11:56 AM
Arrived: 22-Jun-18 12:42 PM
Distance/Time
Traveled:
148nm/0:46
Distance/Time
To Go:
Arrived

Flight Plot

Page will automatically refresh every two minutes.

Flight plan parsing failed; only flown route is shown


Map Options




Map Legend


Flown Route
Filed Route
Departure Airport
Arrival Airport
Navaid (VOR, NDB)
Fix

Horizontal Profiles

Position Reports

Time Latitude Longitude Heading Altitude Ground
Speed
22-Jun-18 11:23 45.585630 -122.605292 179 17ft 0kts
22-Jun-18 11:24 45.585630 -122.605292 179 17ft 0kts
22-Jun-18 11:25 45.585630 -122.605292 179 17ft 0kts
22-Jun-18 11:26 45.585629 -122.605292 180 17ft 0kts
22-Jun-18 11:27 45.585629 -122.605292 180 17ft 0kts
22-Jun-18 11:28 45.585629 -122.605292 180 17ft 0kts
22-Jun-18 11:29 45.585629 -122.605292 180 17ft 0kts
22-Jun-18 11:30 45.585629 -122.605292 180 17ft 0kts
22-Jun-18 11:31 45.585629 -122.605292 180 17ft 0kts
22-Jun-18 11:32 45.585629 -122.605292 180 17ft 0kts
22-Jun-18 11:33 45.585629 -122.605292 180 17ft 0kts
22-Jun-18 11:34 45.585629 -122.605292 180 17ft 0kts
22-Jun-18 11:35 45.585629 -122.605292 180 17ft 0kts
22-Jun-18 11:36 45.585629 -122.605292 180 17ft 0kts
22-Jun-18 11:37 45.585629 -122.605292 180 17ft 0kts
22-Jun-18 11:38 45.585629 -122.605292 180 17ft 0kts
22-Jun-18 11:39 45.585629 -122.605292 180 17ft 0kts
22-Jun-18 11:40 45.585629 -122.605292 180 17ft 0kts
22-Jun-18 11:41 45.585629 -122.605292 180 17ft 0kts
22-Jun-18 11:42 45.585629 -122.605292 180 17ft 0kts
22-Jun-18 11:43 45.585629 -122.605292 180 17ft 0kts
22-Jun-18 11:44 45.585629 -122.605292 180 17ft 0kts
22-Jun-18 11:45 45.585629 -122.605292 180 17ft 0kts
22-Jun-18 11:46 45.585488 -122.605099 90 17ft 0kts
22-Jun-18 11:47 45.585498 -122.604952 23 17ft 0kts
22-Jun-18 11:48 45.585498 -122.604952 23 17ft 0kts
22-Jun-18 11:49 45.585498 -122.604952 23 17ft 0kts
22-Jun-18 11:50 45.586211 -122.601727 116 17ft 8kts
22-Jun-18 11:51 45.584041 -122.596261 115 17ft 20kts
22-Jun-18 11:52 45.581899 -122.590664 117 17ft 8kts
22-Jun-18 11:53 45.579716 -122.584993 86 17ft 2kts
22-Jun-18 11:54 45.579820 -122.584737 37 17ft 0kts
22-Jun-18 11:55 45.579820 -122.584737 37 17ft 0kts
22-Jun-18 11:56 45.583006 -122.590404 298 19ft 92kts
22-Jun-18 11:57 45.598766 -122.638596 293 1424ft 150kts
22-Jun-18 11:58 45.616209 -122.692484 292 3366ft 151kts
22-Jun-18 11:59 45.628209 -122.748605 284 5453ft 146kts
22-Jun-18 12:00 45.634403 -122.810505 236 6989ft 173kts
22-Jun-18 12:01 45.592094 -122.846083 231 8284ft 196kts
22-Jun-18 12:02 45.552898 -122.909321 231 9117ft 215kts
22-Jun-18 12:03 45.513426 -122.970428 214 10710ft 205kts
22-Jun-18 12:04 45.457471 -122.977775 184 12525ft 201kts
22-Jun-18 12:05 45.401962 -122.975708 184 14321ft 203kts
22-Jun-18 12:06 45.345388 -122.971340 185 16120ft 205kts
22-Jun-18 12:07 45.301536 -123.006679 220 17929ft 185kts
22-Jun-18 12:08 45.255575 -123.039024 218 19725ft 185kts
22-Jun-18 12:09 45.204232 -123.072843 215 20136ft 235kts
22-Jun-18 12:10 45.141507 -123.112355 214 20254ft 251kts
22-Jun-18 12:11 45.076063 -123.153729 213 20266ft 266kts
22-Jun-18 12:12 45.026797 -123.184760 212 20264ft 271kts
22-Jun-18 12:13 44.957381 -123.228381 212 20262ft 277kts
22-Jun-18 12:14 44.953890 -123.230570 212 20263ft 277kts
22-Jun-18 12:15 44.895988 -123.266792 212 20249ft 279kts
22-Jun-18 12:16 44.825390 -123.310909 212 20250ft 279kts
22-Jun-18 12:17 44.754489 -123.355213 212 20253ft 279kts
22-Jun-18 12:18 44.684398 -123.398740 212 20254ft 277kts
22-Jun-18 12:19 44.613941 -123.442316 212 20253ft 276kts
22-Jun-18 12:20 44.543986 -123.485593 212 20254ft 276kts
22-Jun-18 12:21 44.474008 -123.528766 212 20254ft 276kts
22-Jun-18 12:22 44.403675 -123.572043 212 20254ft 276kts
22-Jun-18 12:23 44.333348 -123.615207 212 20171ft 279kts
22-Jun-18 12:24 44.260272 -123.660074 210 19369ft 294kts
22-Jun-18 12:25 44.185078 -123.705929 210 18593ft 297kts
22-Jun-18 12:26 44.109599 -123.751857 209 17813ft 296kts
22-Jun-18 12:27 44.034380 -123.797507 209 17034ft 295kts
22-Jun-18 12:28 43.959154 -123.843034 208 16250ft 294kts
22-Jun-18 12:29 43.884729 -123.887944 208 15467ft 293kts
22-Jun-18 12:30 43.810138 -123.932918 208 14659ft 292kts
22-Jun-18 12:31 43.735855 -123.977515 207 13854ft 291kts
22-Jun-18 12:32 43.662683 -124.021320 207 13048ft 285kts
22-Jun-18 12:33 43.590404 -124.064519 207 12047ft 276kts
22-Jun-18 12:34 43.527909 -124.101714 207 10228ft 227kts
22-Jun-18 12:35 43.470399 -124.122695 152 8208ft 227kts
22-Jun-18 12:36 43.424710 -124.079931 145 6439ft 222kts
22-Jun-18 12:37 43.382661 -124.083747 244 6012ft 154kts
22-Jun-18 12:38 43.361200 -124.133358 245 5173ft 165kts
22-Jun-18 12:39 43.337620 -124.190913 249 3348ft 187kts
22-Jun-18 12:40 43.379417 -124.214443 333 1544ft 160kts
22-Jun-18 12:41 43.409952 -124.238375 332 22ft 83kts
22-Jun-18 12:42 43.416869 -124.243840 325 17ft 21kts
22-Jun-18 12:43 43.416164 -124.246090 238 25ft 0kts

Navigation Log

Ident Type
Flight plan parsing failed, navigation log unavailable